首页
METAR-TAF:

METAR-TAF

机场 :

玛丽, 土库曼斯坦

纬度: 37-36-24N, 经度: 061-54-05E, 海拔: 222米

当前天气观测

该预报发布于1小时和8分钟前的15:00 UTC
风速8节,风向西南
温度 3°C
湿度 87%
气压 1035 hPa
能見度: 6000
阴天层高于1200英尺

METAR: UTAM 081500Z 23008KT 6000 OVC012 03/01 Q1035 R88/1///60 TEMPO 1000 BRSN BKN003

时间: 21:08 (16:08 UTC)

预报

该预报发布于5小时和33分钟前的10:35 UTC
预报有效从08日的 12点(UTC)到 09日的 12点(UTC)
风速14节,风向西北
能見度: 3000
多云层高于700英尺
散云层高于2000英尺, 积雨云.
轻雾, 小雪, 雨
短暂存在
从 08日的 12点(UTC)到 08日的 21点(UTC)
风速16节,风向西
能見度: 1000
多云层高于300英尺
轻雾, 雪
成为
从 08日的 21点(UTC)到 08日的 24点(UTC)
能見度: 2000
多云层高于500英尺
轻雾
短暂存在
从 09日的 00点(UTC)到 09日的 05点(UTC)
风速4节,风向多变
能見度: 0600
层高于300英尺
冻雾
成为
从 09日的 06点(UTC)到 09日的 07点(UTC)
风速12节,风向,有时为22节阵风
能見度: 5000
多云层高于2000英尺

TAF: UTAM 081035Z 0812/0912 32014KT 3000 BR -SNRA BKN007 SCT020CB TEMPO 0812/0821 28016KT 1000 BR SN BKN003 BECMG 0821/0824 2000 BR BKN005 TEMPO 0900/0905 VRB04KT 0600 FZFG VV003 BECMG 0906/0907 10012G22KT 5000 BKN020

超过4000个机场的气象观测和天气预报(METAR&TAF报告)。

可查询的气象台以黄色和红色小点在地图上表示。

将鼠标移到小点上方,可查看气象台名称。

然后点击查看天气观测和预报。

如需切换地图:点击带黑十字的绿色按钮放大地图;点击带横线的绿色按钮缩小地图;或者点击绿色箭头查看邻近地区的地图。


METAR-TAF: